Time;durP1;ratioP1;P1;durP2;ratioP2;P2;SDS_P1;SDS_P2;PMS_P1;PMS_P2;Temp;Humidity;BMP_temperature;BMP_pressure;BME280_temperature;BME280_humidity;BME280_pressure;Samples;Min_cycle;Max_cycle;Signal;HPM_P1;HPM_P2
2021/06/15 00:01:43;;;;;;;12.52;7.55;;;19.60;99.90;;;;;;4924252;29;20235;-83
2021/06/15 00:04:10;;;;;;;14.65;8.93;;;19.50;99.90;;;;;;4940712;29;20227;-83
2021/06/15 00:06:37;;;;;;;9.32;8.32;;;19.40;99.90;;;;;;4923583;29;20227;-83
2021/06/15 00:09:04;;;;;;;8.35;7.32;;;19.50;99.90;;;;;;4940076;29;20223;-82
2021/06/15 00:11:31;;;;;;;9.77;7.45;;;19.30;99.90;;;;;;4940877;29;20681;-83
2021/06/15 00:13:58;;;;;;;13.63;8.50;;;19.20;99.90;;;;;;4929975;29;20234;-84
2021/06/15 00:16:25;;;;;;;10.48;9.07;;;19.30;99.90;;;;;;4958893;28;20261;-83
2021/06/15 00:18:54;;;;;;;9.75;8.00;;;19.40;99.90;;;;;;4960504;28;20222;-83
2021/06/15 00:21:21;;;;;;;11.25;7.97;;;19.20;99.90;;;;;;4956256;28;20250;-83
2021/06/15 00:23:47;;;;;;;9.00;7.68;;;19.10;99.90;;;;;;4923693;29;20235;-83
2021/06/15 00:26:15;;;;;;;9.15;7.28;;;19.00;99.90;;;;;;4923355;29;20686;-83
2021/06/15 00:28:42;;;;;;;9.90;8.82;;;18.90;99.90;;;;;;4923796;29;20255;-84
2021/06/15 00:31:09;;;;;;;12.27;9.60;;;19.00;99.90;;;;;;4940450;29;20235;-83
2021/06/15 00:33:59;;;;;;;9.90;8.80;;;19.00;99.90;;;;;;4924303;29;20199;-83
2021/06/15 00:36:26;;;;;;;17.55;10.32;;;19.00;99.90;;;;;;4953638;29;20194;-83
2021/06/15 00:39:11;;;;;;;11.30;9.32;;;18.90;99.90;;;;;;4959886;28;20297;-83
2021/06/15 00:41:38;;;;;;;11.35;8.73;;;19.00;99.90;;;;;;4942574;29;20337;-84
2021/06/15 00:47:49;;;;;;;12.35;10.23;;;19.00;99.90;;;;;;4927699;29;20199;-84
2021/06/15 00:50:19;;;;;;;12.98;10.00;;;19.00;99.90;;;;;;4941167;29;20226;-83
2021/06/15 00:52:47;;;;;;;10.30;9.30;;;18.90;99.90;;;;;;4917882;29;20275;-84
2021/06/15 00:55:15;;;;;;;14.10;9.82;;;18.90;99.90;;;;;;4943281;29;20703;-83
2021/06/15 00:57:43;;;;;;;12.02;9.25;;;18.80;99.90;;;;;;4942610;29;20203;-84
2021/06/15 01:00:11;;;;;;;12.27;9.73;;;18.70;99.90;;;;;;4958868;28;20230;-84
2021/06/15 01:02:38;;;;;;;12.48;9.73;;;18.60;99.90;;;;;;4958776;29;20230;-83
2021/06/15 01:05:09;;;;;;;9.90;8.88;;;18.70;99.90;;;;;;4955984;29;20689;-85
2021/06/15 01:07:46;;;;;;;11.60;8.80;;;18.60;99.90;;;;;;4957565;29;20203;-84
2021/06/15 01:10:25;;;;;;;11.88;9.88;;;18.50;99.90;;;;;;4959211;28;20233;-84
2021/06/15 01:13:02;;;;;;;13.68;8.55;;;18.40;99.90;;;;;;4960919;29;20199;-83
2021/06/15 01:15:37;;;;;;;10.02;8.55;;;18.30;99.90;;;;;;4959164;29;20222;-84
2021/06/15 01:18:09;;;;;;;12.07;10.10;;;18.40;99.90;;;;;;4955202;29;20254;-83
2021/06/15 01:20:38;;;;;;;12.93;10.25;;;18.30;99.90;;;;;;4970274;28;20223;-84
2021/06/15 01:23:28;;;;;;;12.07;9.25;;;18.30;99.90;;;;;;4928034;29;20664;-84
2021/06/15 01:26:10;;;;;;;14.77;9.13;;;18.30;99.90;;;;;;4941659;29;20228;-84
2021/06/15 01:28:44;;;;;;;12.52;10.80;;;18.50;99.90;;;;;;4910782;29;20203;-84
2021/06/15 01:31:15;;;;;;;11.48;9.98;;;18.40;99.90;;;;;;4944589;29;20210;-84
2021/06/15 01:33:47;;;;;;;15.10;10.10;;;18.40;99.90;;;;;;4927596;29;20215;-83
2021/06/15 01:36:17;;;;;;;10.90;9.52;;;18.40;99.90;;;;;;4938154;29;20705;-83
2021/06/15 01:38:53;;;;;;;12.55;9.70;;;18.30;99.90;;;;;;4944694;28;20217;-83
2021/06/15 01:41:29;;;;;;;13.52;10.10;;;18.50;99.90;;;;;;4943695;29;20270;-83
2021/06/15 01:44:02;;;;;;;13.05;10.80;;;18.30;99.90;;;;;;4968614;29;20238;-82
2021/06/15 01:46:34;;;;;;;11.00;9.07;;;18.40;99.90;;;;;;4953835;29;20704;-83
2021/06/15 01:49:05;;;;;;;13.15;8.88;;;18.40;99.90;;;;;;4963407;28;20702;-84
2021/06/15 01:51:36;;;;;;;11.95;10.60;;;18.30;99.90;;;;;;4941661;29;20207;-84
2021/06/15 01:54:09;;;;;;;15.70;11.27;;;18.20;99.90;;;;;;4956897;29;20205;-84
2021/06/15 01:56:42;;;;;;;13.38;10.40;;;18.20;99.90;;;;;;4957762;29;20222;-84
2021/06/15 01:59:16;;;;;;;12.38;10.52;;;18.20;99.90;;;;;;4956552;28;20222;-83
2021/06/15 02:01:50;;;;;;;12.02;10.57;;;18.20;99.90;;;;;;4941868;29;20210;-84
2021/06/15 02:04:24;;;;;;;11.85;10.20;;;18.00;99.90;;;;;;4955827;28;20206;-84
2021/06/15 02:06:54;;;;;;;16.67;12.10;;;18.00;99.90;;;;;;4957141;29;20199;-84
2021/06/15 02:09:23;;;;;;;13.27;11.73;;;18.00;99.90;;;;;;4940998;29;20293;-84
2021/06/15 02:11:56;;;;;;;11.93;10.57;;;18.00;99.90;;;;;;4958833;29;20297;-84
2021/06/15 02:14:45;;;;;;;14.98;11.52;;;17.90;99.90;;;;;;4940755;29;20199;-83
2021/06/15 02:17:27;;;;;;;15.23;11.50;;;17.80;99.90;;;;;;4942956;29;20214;-84
2021/06/15 02:20:23;;;;;;;13.18;11.77;;;17.80;99.90;;;;;;4958335;28;20222;-84
2021/06/15 02:22:53;;;;;;;14.73;11.65;;;17.80;99.90;;;;;;4946794;29;20219;-84
2021/06/15 02:25:25;;;;;;;19.17;14.13;;;17.60;99.90;;;;;;4941248;29;20201;-84
2021/06/15 02:27:54;;;;;;;11.38;10.27;;;17.70;99.90;;;;;;4941200;29;20225;-83
2021/06/15 02:30:25;;;;;;;16.90;12.27;;;17.70;99.90;;;;;;4941089;29;20230;-84
2021/06/15 02:33:09;;;;;;;14.95;13.32;;;17.60;99.90;;;;;;4926724;29;20202;-84
2021/06/15 02:35:42;;;;;;;13.23;11.82;;;17.60;99.90;;;;;;4942750;29;20202;-84
2021/06/15 02:38:14;;;;;;;15.23;13.63;;;17.70;99.90;;;;;;4942854;29;20203;-84
2021/06/15 02:40:42;;;;;;;15.30;12.93;;;17.70;99.90;;;;;;4957770;28;20237;-85
2021/06/15 02:43:11;;;;;;;14.63;13.10;;;17.80;99.90;;;;;;4943191;29;20230;-85
2021/06/15 02:45:42;;;;;;;14.68;13.18;;;17.70;99.90;;;;;;4941567;29;20202;-84
2021/06/15 02:48:10;;;;;;;16.30;12.98;;;17.60;99.90;;;;;;4957656;29;20222;-84
2021/06/15 02:50:48;;;;;;;14.02;11.93;;;17.40;99.90;;;;;;4924583;29;20708;-84
2021/06/15 02:53:18;;;;;;;12.88;11.15;;;17.30;99.90;;;;;;4941672;29;20195;-83
2021/06/15 02:55:51;;;;;;;15.20;13.55;;;17.40;99.90;;;;;;4941964;29;20199;-84
2021/06/15 02:58:19;;;;;;;15.88;14.23;;;17.50;99.90;;;;;;4940659;29;20281;-85
2021/06/15 03:00:48;;;;;;;17.55;14.43;;;17.50;99.90;;;;;;4938155;29;20215;-83
2021/06/15 03:03:16;;;;;;;17.33;15.65;;;17.60;99.90;;;;;;4941510;29;20305;-83
2021/06/15 03:05:43;;;;;;;19.27;16.13;;;17.70;99.90;;;;;;4941670;29;20241;-84
2021/06/15 03:08:10;;;;;;;18.98;16.80;;;17.70;99.90;;;;;;4926756;29;20566;-83
2021/06/15 03:10:40;;;;;;;21.67;17.98;;;17.80;99.90;;;;;;4956624;28;20740;-84
2021/06/15 03:13:13;;;;;;;18.25;16.10;;;17.90;99.90;;;;;;4958638;28;20205;-83
2021/06/15 03:15:44;;;;;;;16.95;14.23;;;17.80;99.90;;;;;;4958103;29;20202;-84
2021/06/15 03:18:21;;;;;;;19.33;15.63;;;17.60;99.90;;;;;;4945433;29;20214;-84
2021/06/15 03:20:50;;;;;;;19.63;14.70;;;17.60;99.90;;;;;;4946375;29;20218;-84
2021/06/15 03:23:26;;;;;;;18.77;16.40;;;17.60;99.90;;;;;;4942389;29;20283;-84
2021/06/15 03:25:55;;;;;;;22.92;18.27;;;17.60;99.90;;;;;;4942814;29;20202;-84
2021/06/15 03:28:26;;;;;;;20.67;17.42;;;17.80;99.90;;;;;;4941811;29;20207;-84
2021/06/15 03:30:56;;;;;;;18.38;15.95;;;17.80;99.90;;;;;;4941821;29;20222;-84
2021/06/15 03:33:25;;;;;;;20.38;16.83;;;17.70;99.90;;;;;;4924116;29;20199;-85
2021/06/15 03:35:59;;;;;;;21.75;17.67;;;17.50;99.90;;;;;;4932774;29;20700;-84
2021/06/15 03:38:31;;;;;;;19.00;15.73;;;17.60;99.90;;;;;;4957100;29;20256;-82
2021/06/15 03:41:00;;;;;;;20.48;17.70;;;17.50;99.90;;;;;;4923323;29;20210;-84
2021/06/15 03:43:30;;;;;;;23.90;17.95;;;17.50;99.90;;;;;;4940067;29;20223;-84
2021/06/15 03:46:01;;;;;;;21.35;18.20;;;17.40;99.90;;;;;;4956612;28;20194;-83
2021/06/15 03:48:31;;;;;;;25.50;20.75;;;17.40;99.90;;;;;;4939220;29;20249;-83
2021/06/15 03:50:59;;;;;;;22.27;19.02;;;17.50;99.90;;;;;;4939972;29;20226;-84
2021/06/15 03:53:30;;;;;;;28.77;21.20;;;17.40;99.90;;;;;;4976113;29;20211;-83
2021/06/15 03:55:59;;;;;;;29.27;21.58;;;17.30;99.90;;;;;;4956310;29;20233;-84
2021/06/15 03:58:27;;;;;;;22.42;19.83;;;17.40;99.90;;;;;;4960371;29;20202;-82
2021/06/15 04:00:56;;;;;;;30.23;22.65;;;17.40;99.90;;;;;;4917866;29;20222;-83
2021/06/15 04:03:25;;;;;;;25.38;19.42;;;17.50;99.90;;;;;;4961057;29;20258;-84
2021/06/15 04:05:56;;;;;;;27.70;23.05;;;17.40;99.90;;;;;;4959128;29;20226;-84
2021/06/15 04:08:25;;;;;;;26.10;23.33;;;17.50;99.90;;;;;;4943011;29;20210;-84
2021/06/15 04:10:54;;;;;;;25.25;21.75;;;17.60;99.90;;;;;;4941528;29;20709;-85
2021/06/15 04:13:25;;;;;;;30.33;22.23;;;17.40;99.90;;;;;;4942477;29;20199;-84
2021/06/15 04:15:52;;;;;;;30.83;22.17;;;17.40;99.90;;;;;;4941913;29;20653;-84
2021/06/15 04:18:23;;;;;;;34.80;23.50;;;17.50;99.90;;;;;;4931748;29;20210;-84
2021/06/15 04:20:56;;;;;;;22.75;19.92;;;17.60;99.90;;;;;;4965658;28;20257;-84
2021/06/15 04:23:30;;;;;;;24.70;21.88;;;17.50;99.90;;;;;;4939591;29;20251;-84
2021/06/15 04:25:57;;;;;;;27.23;21.17;;;17.30;99.90;;;;;;4938571;29;20210;-84
2021/06/15 04:28:25;;;;;;;30.83;24.25;;;17.40;99.90;;;;;;4938173;29;20291;-84
2021/06/15 04:30:54;;;;;;;28.80;21.92;;;17.50;99.90;;;;;;4922153;29;20231;-83
2021/06/15 04:33:28;;;;;;;34.38;25.55;;;17.40;99.90;;;;;;4923004;29;20204;-84
2021/06/15 04:35:59;;;;;;;34.33;26.63;;;17.50;99.90;;;;;;4948468;29;20210;-84
2021/06/15 04:38:35;;;;;;;24.50;21.90;;;17.70;99.90;;;;;;4957751;29;20202;-84
2021/06/15 04:41:07;;;;;;;31.85;24.15;;;17.60;99.90;;;;;;4939862;29;20221;-83
2021/06/15 04:43:38;;;;;;;27.58;22.85;;;17.70;99.90;;;;;;4957564;29;20249;-84
2021/06/15 04:46:14;;;;;;;29.00;24.35;;;17.60;99.90;;;;;;4957310;29;20242;-84
2021/06/15 04:48:47;;;;;;;33.58;25.83;;;17.70;99.90;;;;;;4957683;28;20210;-84
2021/06/15 04:51:20;;;;;;;31.88;22.63;;;17.80;99.90;;;;;;4957964;29;20624;-83
2021/06/15 04:53:49;;;;;;;29.70;22.92;;;17.90;99.90;;;;;;4957238;29;20199;-85
2021/06/15 04:56:18;;;;;;;28.35;24.73;;;17.90;99.90;;;;;;4954982;29;20216;-85
2021/06/15 04:58:48;;;;;;;33.40;24.13;;;18.10;99.90;;;;;;4950017;28;20214;-85
2021/06/15 05:01:17;;;;;;;27.15;24.00;;;18.20;99.90;;;;;;4937450;29;20690;-84
2021/06/15 05:03:45;;;;;;;36.25;23.88;;;18.10;99.90;;;;;;4929834;29;20222;-84
2021/06/15 05:06:13;;;;;;;27.13;23.63;;;18.10;99.90;;;;;;4937565;29;20309;-84
2021/06/15 05:08:48;;;;;;;33.17;24.15;;;17.80;99.90;;;;;;4937182;29;20196;-84
2021/06/15 05:11:17;;;;;;;25.98;22.45;;;17.80;99.90;;;;;;4940015;29;20678;-83
2021/06/15 05:13:45;;;;;;;27.95;23.65;;;17.80;99.90;;;;;;4939076;29;20215;-84
2021/06/15 05:16:14;;;;;;;28.17;24.70;;;17.90;99.90;;;;;;4938438;29;20203;-83
2021/06/15 05:18:41;;;;;;;22.40;19.88;;;18.20;99.90;;;;;;4944886;28;20286;-83
2021/06/15 05:21:11;;;;;;;27.65;23.10;;;18.30;99.90;;;;;;4957649;29;20297;-83
2021/06/15 05:23:44;;;;;;;26.48;23.73;;;18.20;99.90;;;;;;4956381;28;20219;-82
2021/06/15 05:26:13;;;;;;;31.35;22.98;;;18.30;99.90;;;;;;4955822;29;20218;-83
2021/06/15 05:28:40;;;;;;;30.02;25.02;;;18.30;99.90;;;;;;4942967;28;20210;-83
2021/06/15 05:31:07;;;;;;;27.52;23.52;;;18.20;99.90;;;;;;4960640;28;20207;-82
2021/06/15 05:33:34;;;;;;;26.30;23.27;;;18.20;99.90;;;;;;4928329;29;20237;-82
2021/06/15 05:36:01;;;;;;;26.90;23.02;;;18.10;99.90;;;;;;4960299;29;20206;-82
2021/06/15 05:38:28;;;;;;;33.75;26.45;;;18.30;99.90;;;;;;4942383;29;20218;-81
2021/06/15 05:40:59;;;;;;;26.70;23.70;;;18.30;99.90;;;;;;4955664;28;20314;-82
2021/06/15 05:43:27;;;;;;;25.95;23.00;;;18.40;99.90;;;;;;4959935;29;20286;-82
2021/06/15 05:45:54;;;;;;;26.48;23.65;;;18.50;99.90;;;;;;4965372;29;20210;-82
2021/06/15 05:48:21;;;;;;;26.20;21.98;;;18.60;99.90;;;;;;4946793;29;20285;-83
2021/06/15 05:50:49;;;;;;;22.52;20.23;;;18.50;99.90;;;;;;4960753;28;20222;-83
2021/06/15 05:53:16;;;;;;;22.80;19.92;;;18.50;99.90;;;;;;4960405;29;20226;-82
2021/06/15 05:55:43;;;;;;;27.30;20.40;;;18.60;99.90;;;;;;4960378;29;20213;-82
2021/06/15 05:58:11;;;;;;;29.42;23.38;;;18.50;99.90;;;;;;4960594;29;20235;-83
2021/06/15 06:00:38;;;;;;;22.42;20.23;;;18.50;99.90;;;;;;4963044;28;20720;-83
2021/06/15 06:03:06;;;;;;;23.02;20.08;;;18.40;99.90;;;;;;4944981;29;20202;-83
2021/06/15 06:08:21;;;;;;;22.35;18.65;;;18.60;99.90;;;;;;4962108;29;20692;-83
2021/06/15 06:10:48;;;;;;;25.38;19.60;;;18.50;99.90;;;;;;4963256;28;20234;-83
2021/06/15 06:13:16;;;;;;;20.98;17.75;;;18.50;99.90;;;;;;4945091;29;20286;-83
2021/06/15 06:15:43;;;;;;;22.52;18.38;;;18.60;99.90;;;;;;4945174;29;20311;-83
2021/06/15 06:18:13;;;;;;;19.48;17.42;;;18.80;99.90;;;;;;4963775;29;20684;-82
2021/06/15 06:20:41;;;;;;;29.30;20.90;;;18.70;99.90;;;;;;4961119;28;20253;-82
2021/06/15 06:23:09;;;;;;;21.25;19.08;;;18.90;99.90;;;;;;4965265;28;20282;-83
2021/06/15 06:25:37;;;;;;;22.23;17.65;;;18.80;99.90;;;;;;4947025;28;20213;-84
2021/06/15 06:28:04;;;;;;;19.83;17.45;;;18.80;99.90;;;;;;4945673;29;20743;-80
2021/06/15 06:30:36;;;;;;;21.25;18.20;;;18.70;99.90;;;;;;4964997;28;20223;-83
2021/06/15 06:33:03;;;;;;;22.40;17.08;;;18.60;99.90;;;;;;4963533;29;20222;-83
2021/06/15 06:35:30;;;;;;;24.23;18.33;;;18.40;99.90;;;;;;4952260;29;20199;-83
2021/06/15 06:38:04;;;;;;;20.65;15.60;;;18.50;99.90;;;;;;4970124;29;20214;-82
2021/06/15 06:40:31;;;;;;;18.10;15.85;;;18.50;99.90;;;;;;4967308;28;20237;-83
2021/06/15 06:43:00;;;;;;;16.00;14.38;;;18.60;99.90;;;;;;4959839;28;20214;-83
2021/06/15 06:45:34;;;;;;;22.70;16.05;;;18.50;99.90;;;;;;4964808;29;20282;-83
2021/06/15 06:48:01;;;;;;;15.63;13.75;;;18.70;99.90;;;;;;4962187;29;20222;-83
2021/06/15 06:50:30;;;;;;;18.75;15.35;;;18.60;99.90;;;;;;4966023;29;20278;-83
2021/06/15 06:52:57;;;;;;;20.48;14.30;;;18.80;99.90;;;;;;4968761;28;20274;-82
2021/06/15 06:55:25;;;;;;;15.15;12.60;;;18.90;99.90;;;;;;4942703;29;20196;-84
2021/06/15 06:57:52;;;;;;;16.70;12.52;;;19.00;99.90;;;;;;4967661;29;20662;-84
2021/06/15 07:00:20;;;;;;;19.98;14.15;;;19.00;99.90;;;;;;4967408;28;20641;-83
2021/06/15 07:02:49;;;;;;;18.25;13.43;;;19.00;99.90;;;;;;4950318;29;20399;-84
2021/06/15 07:05:16;;;;;;;16.92;12.73;;;18.90;99.90;;;;;;4968008;28;20222;-82
2021/06/15 07:07:44;;;;;;;17.67;12.63;;;19.00;99.90;;;;;;4962396;28;20565;-83
2021/06/15 07:10:33;;;;;;;18.48;13.80;;;19.00;99.90;;;;;;4969761;28;20250;-83
2021/06/15 07:13:02;;;;;;;21.45;12.77;;;19.00;99.90;;;;;;4954222;29;20203;-84
2021/06/15 07:15:30;;;;;;;15.02;12.45;;;19.00;99.90;;;;;;4971286;28;20206;-83
2021/06/15 07:17:58;;;;;;;16.85;13.13;;;18.90;99.90;;;;;;4970563;28;20223;-84
2021/06/15 07:20:32;;;;;;;18.75;16.30;;;19.00;99.90;;;;;;4969859;28;20629;-84
2021/06/15 07:22:59;;;;;;;18.42;14.48;;;19.30;99.90;;;;;;4960495;29;20666;-84
2021/06/15 07:25:31;;;;;;;18.02;14.98;;;19.40;99.90;;;;;;4962790;28;20278;-83
2021/06/15 07:31:01;;;;;;;15.20;13.07;;;19.50;99.90;;;;;;4950053;29;20206;-83
2021/06/15 07:33:33;;;;;;;15.77;12.63;;;19.70;99.90;;;;;;4960961;29;20203;-84
2021/06/15 07:36:00;;;;;;;18.00;14.57;;;19.50;99.90;;;;;;4951789;28;20197;-84
2021/06/15 07:38:27;;;;;;;13.93;11.55;;;19.80;99.90;;;;;;4952838;28;20241;-83
2021/06/15 07:43:45;;;;;;;15.68;11.90;;;19.60;99.90;;;;;;4960941;28;20206;-85
2021/06/15 07:46:14;;;;;;;12.27;10.35;;;19.90;99.90;;;;;;4970748;28;20202;-85
2021/06/15 07:48:42;;;;;;;12.77;10.80;;;19.90;99.90;;;;;;4965194;28;20695;-83
2021/06/15 07:51:09;;;;;;;20.48;11.48;;;19.90;99.90;;;;;;4954134;28;20260;-85
2021/06/15 07:53:36;;;;;;;14.25;11.02;;;19.90;99.90;;;;;;4959390;28;20203;-84
2021/06/15 07:56:03;;;;;;;12.55;10.82;;;20.00;99.90;;;;;;4955600;29;20242;-85
2021/06/15 07:58:30;;;;;;;14.00;10.80;;;19.80;99.90;;;;;;4958618;28;20199;-82
2021/06/15 08:01:00;;;;;;;14.68;8.23;;;19.70;99.90;;;;;;4956845;28;20218;-85
2021/06/15 08:03:27;;;;;;;13.77;9.00;;;19.70;99.90;;;;;;4954615;28;20195;-84
2021/06/15 08:05:56;;;;;;;14.82;8.68;;;19.70;99.90;;;;;;4923006;29;20224;-84
2021/06/15 08:08:23;;;;;;;12.18;9.05;;;19.50;99.90;;;;;;4959226;29;20219;-85
2021/06/15 08:10:50;;;;;;;13.25;9.45;;;19.60;99.90;;;;;;4935718;29;20227;-84
2021/06/15 08:13:17;;;;;;;12.10;10.02;;;19.60;99.90;;;;;;4925818;29;20222;-85
2021/06/15 08:15:45;;;;;;;12.27;11.05;;;19.50;99.90;;;;;;4941175;29;20617;-85
2021/06/15 08:18:12;;;;;;;12.95;10.80;;;19.60;99.90;;;;;;4952900;28;20624;-85
2021/06/15 08:20:39;;;;;;;12.23;9.93;;;19.60;99.90;;;;;;4958153;28;20226;-85
2021/06/15 08:23:08;;;;;;;13.13;8.85;;;19.40;99.90;;;;;;4959564;28;20202;-86
2021/06/15 08:25:35;;;;;;;12.75;11.27;;;19.60;99.90;;;;;;4940314;29;20331;-85
2021/06/15 08:28:04;;;;;;;13.50;12.13;;;19.70;99.90;;;;;;4940760;29;20198;-85
2021/06/15 08:30:31;;;;;;;15.77;8.75;;;19.80;99.90;;;;;;4939619;29;20219;-85
2021/06/15 08:32:58;;;;;;;14.23;9.13;;;19.70;99.90;;;;;;4943231;29;20207;-85
2021/06/15 08:35:28;;;;;;;9.68;6.75;;;19.60;99.90;;;;;;4960118;28;20219;-83
2021/06/15 08:37:55;;;;;;;11.02;7.55;;;19.40;99.90;;;;;;4954895;29;20230;-83
2021/06/15 08:40:23;;;;;;;9.13;7.25;;;19.60;99.90;;;;;;4935432;28;20330;-84
2021/06/15 08:42:53;;;;;;;10.68;6.25;;;19.90;99.90;;;;;;4959171;28;20210;-85
2021/06/15 08:45:20;;;;;;;11.70;6.28;;;20.00;99.90;;;;;;4970691;28;20258;-85
2021/06/15 08:47:49;;;;;;;13.98;6.93;;;19.90;99.90;;;;;;4970134;28;20194;-83
2021/06/15 08:50:18;;;;;;;8.60;5.90;;;20.20;99.90;;;;;;4955199;28;20241;-84
2021/06/15 08:52:46;;;;;;;12.23;5.30;;;20.30;99.90;;;;;;4955197;28;20206;-85
2021/06/15 08:55:14;;;;;;;8.25;4.90;;;20.60;99.90;;;;;;4964460;28;20202;-84
2021/06/15 08:57:46;;;;;;;7.90;3.97;;;20.70;99.90;;;;;;4959752;28;20198;-84
2021/06/15 09:00:13;;;;;;;7.53;4.68;;;21.00;99.90;;;;;;4959175;28;20444;-84
2021/06/15 09:02:45;;;;;;;5.55;4.13;;;21.30;99.90;;;;;;4960956;28;20227;-85
2021/06/15 09:05:15;;;;;;;8.18;4.43;;;20.80;99.90;;;;;;4957886;29;20215;-84
2021/06/15 09:08:05;;;;;;;6.30;4.18;;;20.80;99.90;;;;;;4959936;28;20202;-85
2021/06/15 09:10:33;;;;;;;6.95;3.90;;;20.90;99.90;;;;;;4957868;28;20226;-84
2021/06/15 09:13:03;;;;;;;6.75;4.22;;;20.70;99.90;;;;;;4961467;29;20273;-84
2021/06/15 09:15:32;;;;;;;6.13;3.95;;;20.90;99.90;;;;;;4943523;29;20199;-83
2021/06/15 09:17:59;;;;;;;7.18;4.15;;;21.30;99.90;;;;;;4960071;28;20206;-83
2021/06/15 09:20:30;;;;;;;7.95;3.40;;;21.10;99.90;;;;;;4940511;29;20234;-83
2021/06/15 09:23:04;;;;;;;6.80;3.80;;;20.50;99.90;;;;;;4952621;28;20632;-85
2021/06/15 09:25:32;;;;;;;19.40;5.90;;;20.30;99.90;;;;;;4953784;29;20227;-84
2021/06/15 09:28:00;;;;;;;14.50;4.72;;;20.00;99.90;;;;;;4962069;29;20222;-85
2021/06/15 09:30:30;;;;;;;7.40;3.97;;;19.90;99.90;;;;;;4959241;28;20222;-84
2021/06/15 09:33:10;;;;;;;10.23;3.72;;;20.30;99.90;;;;;;4958121;28;20662;-85
2021/06/15 09:35:37;;;;;;;13.38;3.90;;;20.50;99.90;;;;;;4962218;29;20225;-84
2021/06/15 09:41:35;;;;;;;3.78;2.78;;;20.40;99.90;;;;;;4924363;29;20199;-85
2021/06/15 09:44:13;;;;;;;13.15;4.10;;;20.50;99.90;;;;;;4942698;29;20190;-85
2021/06/15 09:47:07;;;;;;;8.30;3.28;;;20.70;99.90;;;;;;4958825;29;20207;-85
2021/06/15 09:49:58;;;;;;;10.68;4.03;;;21.20;99.90;;;;;;4957302;28;20986;-84
2021/06/15 09:52:33;;;;;;;10.35;3.47;;;21.60;99.90;;;;;;4810487;29;369742;-86
2021/06/15 09:55:26;;;;;;;7.63;3.50;;;21.50;99.90;;;;;;5093270;27;68523;-36
2021/06/15 09:57:53;;;;;;;6.93;3.45;;;21.40;99.90;;;;;;5103340;28;20620;-35
2021/06/15 10:00:21;;;;;;;12.55;4.15;;;21.30;99.90;;;;;;5079370;28;20228;-37
2021/06/15 10:02:51;;;;;;;10.57;3.22;;;21.20;99.90;;;;;;5079975;28;20207;-38
2021/06/15 10:05:27;;;;;;;8.35;3.28;;;21.10;99.90;;;;;;5081583;28;20203;-37
2021/06/15 10:07:57;;;;;;;20.85;5.00;;;20.90;99.90;;;;;;5070578;22;20231;-40
2021/06/15 10:10:29;;;;;;;6.30;2.95;;;20.80;99.90;;;;;;5004444;28;20572;-39
2021/06/15 10:12:56;;;;;;;5.50;2.40;;;21.00;99.90;;;;;;5005245;28;20434;-38
2021/06/15 10:15:26;;;;;;;6.68;3.53;;;21.40;99.90;;;;;;5005793;28;20227;-38
2021/06/15 10:17:53;;;;;;;6.18;2.65;;;21.50;99.90;;;;;;5009639;28;20713;-38
2021/06/15 10:20:22;;;;;;;6.50;2.90;;;21.70;99.90;;;;;;5025736;28;20226;-39
2021/06/15 10:22:51;;;;;;;8.45;3.67;;;21.80;99.90;;;;;;5025759;28;20212;-37
2021/06/15 10:25:21;;;;;;;4.53;2.58;;;21.80;99.90;;;;;;5022908;28;20231;-38
2021/06/15 10:27:50;;;;;;;9.35;2.92;;;21.90;99.90;;;;;;5025543;28;20242;-38
2021/06/15 10:30:27;;;;;;;8.90;3.88;;;22.00;99.90;;;;;;5025369;28;20208;-38
2021/06/15 10:32:58;;;;;;;3.63;2.33;;;22.20;99.90;;;;;;5025487;28;20199;-37
2021/06/15 10:35:42;;;;;;;5.88;1.90;;;22.10;99.90;;;;;;5025094;28;20215;-39
2021/06/15 10:38:11;;;;;;;8.00;3.00;;;22.30;99.90;;;;;;5025693;28;20797;-38
2021/06/15 10:40:48;;;;;;;8.38;2.83;;;22.40;99.90;;;;;;5026222;28;20262;-38
2021/06/15 10:43:30;;;;;;;5.38;2.33;;;22.70;99.90;;;;;;5025733;28;20207;-39
2021/06/15 10:46:06;;;;;;;5.63;2.28;;;22.90;99.90;;;;;;5026313;28;20569;-37
2021/06/15 10:48:46;;;;;;;7.65;2.53;;;23.00;99.90;;;;;;5023822;28;20223;-38
2021/06/15 10:51:24;;;;;;;6.28;2.30;;;23.00;99.90;;;;;;5026441;28;20224;-39
2021/06/15 10:53:52;;;;;;;8.02;2.42;;;23.10;99.90;;;;;;5026333;28;20212;-37
2021/06/15 10:56:22;;;;;;;3.60;1.90;;;23.20;99.90;;;;;;5027001;28;20208;-37
2021/06/15 10:59:02;;;;;;;3.13;1.45;;;23.40;99.90;;;;;;5024049;28;20247;-38
2021/06/15 11:01:31;;;;;;;2.75;2.00;;;23.20;99.90;;;;;;5021294;28;20215;-38
2021/06/15 11:03:59;;;;;;;3.63;2.03;;;23.10;99.90;;;;;;5023833;28;20274;-38
2021/06/15 11:06:45;;;;;;;5.30;1.92;;;23.40;99.90;;;;;;5005369;28;20335;-39
2021/06/15 11:09:15;;;;;;;3.72;2.03;;;23.70;99.90;;;;;;5002459;28;20748;-38
2021/06/15 11:11:44;;;;;;;4.45;2.28;;;23.90;99.90;;;;;;5008174;28;20417;-38
2021/06/15 11:14:17;;;;;;;7.40;1.88;;;23.80;99.90;;;;;;5009339;28;20216;-40
2021/06/15 11:16:46;;;;;;;5.05;2.03;;;23.70;99.90;;;;;;5009559;28;20208;-37
2021/06/15 11:19:33;;;;;;;7.65;2.67;;;23.60;99.90;;;;;;5010519;28;20592;-38
2021/06/15 11:22:03;;;;;;;5.28;2.03;;;23.40;99.90;;;;;;5011101;28;20204;-38
2021/06/15 11:24:31;;;;;;;5.10;1.73;;;23.50;99.90;;;;;;5005342;28;20198;-40
2021/06/15 11:27:00;;;;;;;3.70;1.80;;;23.50;99.90;;;;;;5005881;28;20201;-39
2021/06/15 11:29:33;;;;;;;6.13;2.15;;;23.50;99.90;;;;;;5008563;28;20221;-37
2021/06/15 11:32:21;;;;;;;5.22;1.60;;;23.40;99.90;;;;;;5007537;28;20549;-39
2021/06/15 11:35:24;;;;;;;8.02;2.15;;;23.50;99.90;;;;;;5012279;28;20560;-40
2021/06/15 11:37:52;;;;;;;5.28;2.30;;;23.60;99.90;;;;;;4970788;28;20223;-39
2021/06/15 11:40:27;;;;;;;7.60;1.92;;;24.00;99.90;;;;;;4971264;28;20206;-39
2021/06/15 11:42:55;;;;;;;5.18;2.17;;;24.30;99.90;;;;;;4996662;28;20201;-38
2021/06/15 11:45:32;;;;;;;2.55;1.55;;;24.50;99.90;;;;;;5009983;28;20254;-39
2021/06/15 11:48:18;;;;;;;4.18;1.85;;;24.70;99.90;;;;;;5009020;28;20227;-38
2021/06/15 11:50:47;;;;;;;6.95;2.10;;;24.50;99.90;;;;;;5003860;28;20192;-40
2021/06/15 11:53:16;;;;;;;4.53;1.92;;;24.00;99.90;;;;;;5012618;28;20197;-39
2021/06/15 11:55:46;;;;;;;2.33;1.20;;;24.20;99.90;;;;;;5007227;28;20221;-39
2021/06/15 11:58:15;;;;;;;5.78;1.70;;;24.10;99.90;;;;;;5010630;28;20749;-37
2021/06/15 12:00:45;;;;;;;3.58;1.23;;;24.30;99.90;;;;;;5010360;28;20205;-39
2021/06/15 12:03:17;;;;;;;4.45;1.90;;;24.10;99.90;;;;;;5011530;28;20204;-39
2021/06/15 12:05:45;;;;;;;4.97;1.58;;;24.20;99.90;;;;;;5010530;28;20234;-38
2021/06/15 12:08:12;;;;;;;6.07;2.20;;;24.40;99.90;;;;;;5011018;28;20263;-38
2021/06/15 12:10:40;;;;;;;3.13;1.60;;;24.60;99.90;;;;;;5009715;28;20605;-39
2021/06/15 12:13:16;;;;;;;5.13;1.83;;;24.80;99.90;;;;;;5006165;28;20685;-39
2021/06/15 12:15:50;;;;;;;5.15;1.40;;;24.50;99.90;;;;;;5010606;28;20244;-38
2021/06/15 12:18:35;;;;;;;4.05;1.65;;;24.60;99.90;;;;;;5006159;28;20228;-41
2021/06/15 12:21:06;;;;;;;6.43;1.75;;;24.80;99.90;;;;;;5010662;28;20555;-38
2021/06/15 12:23:39;;;;;;;2.92;1.52;;;25.10;99.90;;;;;;5009524;28;20243;-37
2021/06/15 12:26:21;;;;;;;5.88;2.00;;;25.40;99.90;;;;;;5010268;28;20266;-38
2021/06/15 12:28:51;;;;;;;7.68;2.08;;;25.50;99.90;;;;;;5009869;28;20730;-37
2021/06/15 12:31:22;;;;;;;6.65;1.95;;;25.90;99.90;;;;;;5011199;28;20288;-39
2021/06/15 12:33:51;;;;;;;3.85;1.75;;;25.80;99.90;;;;;;5010426;28;20193;-37
2021/06/15 12:36:22;;;;;;;4.40;1.83;;;25.90;99.90;;;;;;5010391;28;20201;-37
2021/06/15 12:38:50;;;;;;;4.45;1.50;;;26.10;99.90;;;;;;5010023;28;20224;-37
2021/06/15 12:41:21;;;;;;;4.35;1.63;;;26.00;99.90;;;;;;5010823;28;20311;-37
2021/06/15 12:43:49;;;;;;;3.80;1.15;;;26.00;99.90;;;;;;5011127;28;20280;-40
2021/06/15 12:46:21;;;;;;;3.58;1.52;;;26.10;99.90;;;;;;5010591;28;20192;-38
2021/06/15 12:48:53;;;;;;;5.28;1.58;;;26.40;99.90;;;;;;5009629;28;20651;-37
2021/06/15 12:51:23;;;;;;;4.47;1.40;;;26.30;99.90;;;;;;5010963;28;20201;-39
2021/06/15 12:53:51;;;;;;;4.15;1.25;;;26.30;99.90;;;;;;5009441;28;20197;-39
2021/06/15 12:56:21;;;;;;;3.55;1.13;;;26.30;99.90;;;;;;5009818;28;20271;-39
2021/06/15 12:58:49;;;;;;;7.97;1.60;;;26.00;99.90;;;;;;5007986;28;20258;-40
2021/06/15 13:01:18;;;;;;;6.32;1.38;;;25.60;99.90;;;;;;5007655;28;20287;-39
2021/06/15 13:03:52;;;;;;;3.03;1.13;;;26.00;99.90;;;;;;5008161;28;20223;-40
2021/06/15 13:06:22;;;;;;;7.70;1.50;;;26.10;99.90;;;;;;5009785;28;20284;-38
2021/06/15 13:08:50;;;;;;;4.82;1.38;;;26.00;99.90;;;;;;5009736;28;20228;-38
2021/06/15 13:11:19;;;;;;;5.93;1.90;;;26.20;99.90;;;;;;5007973;28;20207;-39